Time;durP1;ratioP1;P1;durP2;ratioP2;P2;SDS_P1;SDS_P2;PMS_P1;PMS_P2;Temp;Humidity;BMP_temperature;BMP_pressure;BME280_temperature;BME280_humidity;BME280_pressure;Samples;Min_cycle;Max_cycle;Signal;HPM_P1;HPM_P2
2021/04/30 00:04:22;;;;;;;4.23;2.33;;;;;;;5.80;82.83;98530.75;10374694;28;20173;-76
2021/04/30 00:09:41;;;;;;;2.50;2.30;;;;;;;5.76;83.24;98535.41;10375163;28;20208;-78
2021/04/30 00:15:01;;;;;;;5.17;4.77;;;;;;;5.52;85.28;98534.06;10373925;28;20177;-77
2021/04/30 00:20:20;;;;;;;2.60;2.00;;;;;;;5.36;87.23;98530.03;10374884;28;20604;-77
2021/04/30 00:25:39;;;;;;;3.23;2.33;;;;;;;5.07;89.51;98541.88;10374525;28;20212;-76
2021/04/30 00:30:59;;;;;;;2.07;1.83;;;;;;;4.86;90.57;98540.88;10358079;28;20267;-77
2021/04/30 00:36:18;;;;;;;2.50;2.30;;;;;;;4.71;90.12;98544.63;10373561;28;20172;-77
2021/04/30 00:41:39;;;;;;;3.00;1.43;;;;;;;4.58;90.32;98545.25;10374415;28;20650;-76
2021/04/30 00:46:58;;;;;;;1.10;0.93;;;;;;;4.43;96.17;98557.16;10372587;28;20595;-77
2021/04/30 00:52:18;;;;;;;2.47;2.00;;;;;;;4.31;100.00;98555.44;10373635;28;20216;-76
2021/04/30 00:57:39;;;;;;;4.80;2.80;;;;;;;4.32;100.00;98565.19;10373951;28;20208;-75
2021/04/30 01:02:58;;;;;;;3.97;2.90;;;;;;;4.37;100.00;98567.56;10372765;28;20172;-75
2021/04/30 01:08:17;;;;;;;1.97;1.77;;;;;;;4.25;100.00;98583.38;10373897;28;20185;-78
2021/04/30 01:13:36;;;;;;;1.17;1.07;;;;;;;4.19;100.00;98576.69;10373027;28;20212;-77
2021/04/30 01:18:56;;;;;;;1.97;1.70;;;;;;;4.07;100.00;98590.53;10373659;28;20193;-75
2021/04/30 01:24:15;;;;;;;3.63;1.80;;;;;;;3.88;100.00;98587.16;10373449;28;20220;-77
2021/04/30 01:29:34;;;;;;;2.20;2.00;;;;;;;3.92;100.00;98589.53;10371814;28;20208;-75
2021/04/30 01:34:52;;;;;;;1.37;1.27;;;;;;;3.89;100.00;98591.41;10373234;28;20184;-78
2021/04/30 01:40:14;;;;;;;4.70;2.40;;;;;;;3.78;100.00;98594.00;10378421;28;20173;-76
2021/04/30 01:45:42;;;;;;;2.60;2.33;;;;;;;3.56;100.00;98594.81;10379459;28;20588;-76
2021/04/30 01:51:03;;;;;;;3.63;2.20;;;;;;;3.51;100.00;98605.22;10380564;28;20603;-76
2021/04/30 01:56:22;;;;;;;2.60;1.10;;;;;;;3.51;100.00;98603.31;10380627;28;20212;-76
2021/04/30 02:01:41;;;;;;;1.90;1.80;;;;;;;3.46;100.00;98610.97;10364127;28;20172;-75
2021/04/30 02:07:01;;;;;;;2.37;1.37;;;;;;;3.52;100.00;98618.44;10365395;28;20698;-75
2021/04/30 02:12:23;;;;;;;7.73;2.13;;;;;;;3.47;100.00;98621.47;10379458;28;20208;-76
2021/04/30 02:17:42;;;;;;;2.47;2.27;;;;;;;3.46;100.00;98625.34;10378414;28;20204;-78
2021/04/30 02:23:02;;;;;;;4.00;2.00;;;;;;;3.27;100.00;98630.06;10379436;28;20204;-77
2021/04/30 02:28:21;;;;;;;3.13;2.83;;;;;;;3.16;100.00;98623.66;10379427;28;20172;-77
2021/04/30 02:33:43;;;;;;;4.17;2.60;;;;;;;3.18;100.00;98624.09;10364312;28;20180;-78
2021/04/30 02:39:04;;;;;;;4.23;2.00;;;;;;;3.03;100.00;98614.13;10379011;28;20181;-79
2021/04/30 02:44:23;;;;;;;3.20;1.87;;;;;;;2.88;100.00;98620.44;10377595;28;20627;-78
2021/04/30 02:49:45;;;;;;;3.33;3.13;;;;;;;2.87;100.00;98626.25;10376913;28;20216;-78
2021/04/30 02:55:04;;;;;;;3.47;1.97;;;;;;;2.67;100.00;98617.31;10377304;28;20181;-78
2021/04/30 03:00:25;;;;;;;2.80;2.33;;;;;;;2.53;100.00;98614.31;10376798;28;20185;-76
2021/04/30 03:05:45;;;;;;;4.03;2.07;;;;;;;2.41;100.00;98616.38;10377975;28;20184;-78
2021/04/30 03:11:04;;;;;;;1.87;1.43;;;;;;;2.46;100.00;98621.56;10377339;28;20212;-78
2021/04/30 03:16:23;;;;;;;1.43;1.10;;;;;;;2.44;100.00;98616.47;10376173;28;20671;-79
2021/04/30 03:21:42;;;;;;;2.63;2.40;;;;;;;2.47;100.00;98623.09;10376809;28;20622;-78
2021/04/30 03:27:01;;;;;;;2.00;1.57;;;;;;;2.29;100.00;98610.31;10377029;28;20173;-78
2021/04/30 03:32:20;;;;;;;3.27;2.97;;;;;;;2.47;100.00;98614.97;10375248;28;20571;-76
2021/04/30 03:37:39;;;;;;;3.30;1.37;;;;;;;2.38;100.00;98612.47;10361619;28;20173;-77
2021/04/30 03:42:58;;;;;;;1.67;1.50;;;;;;;2.19;100.00;98622.53;10361652;28;20180;-76
2021/04/30 03:48:18;;;;;;;7.60;2.27;;;;;;;1.96;100.00;98615.41;10373286;28;20307;-77
2021/04/30 03:53:37;;;;;;;1.93;1.83;;;;;;;1.94;100.00;98612.28;10376072;28;20263;-76
2021/04/30 03:58:56;;;;;;;4.70;2.70;;;;;;;1.88;100.00;98609.06;10359461;28;20192;-77
2021/04/30 04:04:15;;;;;;;1.30;1.20;;;;;;;1.87;100.00;98633.81;10360326;28;20519;-77
2021/04/30 04:09:35;;;;;;;3.43;2.00;;;;;;;1.80;100.00;98641.78;10375282;28;20208;-78
2021/04/30 04:14:54;;;;;;;4.67;2.70;;;;;;;1.84;100.00;98639.94;10374107;28;20173;-77
2021/04/30 04:20:13;;;;;;;4.07;3.07;;;;;;;1.90;100.00;98633.88;10360210;28;20204;-75
2021/04/30 04:25:32;;;;;;;9.13;2.80;;;;;;;2.09;100.00;98644.00;10373843;28;20287;-77
2021/04/30 04:30:52;;;;;;;1.40;1.10;;;;;;;2.25;100.00;98644.75;10373289;28;20212;-76
2021/04/30 04:36:12;;;;;;;3.83;1.97;;;;;;;2.46;100.00;98646.75;10374405;28;20169;-76
2021/04/30 04:41:30;;;;;;;2.97;2.77;;;;;;;2.62;100.00;98644.75;10359686;28;20185;-75
2021/04/30 04:46:49;;;;;;;2.97;2.77;;;;;;;2.66;100.00;98648.34;10372377;28;20256;-75
2021/04/30 04:52:08;;;;;;;2.77;2.57;;;;;;;2.76;100.00;98650.47;10373863;28;20567;-76
2021/04/30 04:57:27;;;;;;;2.57;2.30;;;;;;;3.06;100.00;98658.78;10373947;28;20220;-76
2021/04/30 05:02:46;;;;;;;6.87;3.40;;;;;;;3.36;100.00;98669.44;10372780;28;20662;-78
2021/04/30 05:08:05;;;;;;;4.87;4.47;;;;;;;3.55;100.00;98671.34;10373487;28;20172;-78
2021/04/30 05:13:24;;;;;;;6.73;4.93;;;;;;;3.67;100.00;98685.53;10375559;28;20208;-78
2021/04/30 05:18:43;;;;;;;2.40;2.20;;;;;;;3.80;100.00;98681.47;10381954;28;20196;-77
2021/04/30 05:24:03;;;;;;;6.83;2.93;;;;;;;3.89;100.00;98681.19;10366913;28;20215;-77
2021/04/30 05:29:22;;;;;;;4.70;3.20;;;;;;;4.08;100.00;98687.34;10380412;28;20208;-79
2021/04/30 05:34:41;;;;;;;4.50;3.47;;;;;;;4.36;100.00;98698.66;10366640;28;20180;-76
2021/04/30 05:40:00;;;;;;;6.30;3.47;;;;;;;4.67;100.00;98696.38;10366478;28;20180;-77
2021/04/30 05:45:19;;;;;;;4.80;3.73;;;;;;;5.00;100.00;98694.44;10364677;28;20256;-76
2021/04/30 05:50:38;;;;;;;4.63;2.43;;;;;;;5.49;100.00;98679.38;10380250;28;20584;-78
2021/04/30 05:55:58;;;;;;;3.13;2.83;;;;;;;5.82;100.00;98684.78;10380460;28;20207;-79
2021/04/30 06:01:17;;;;;;;9.27;5.80;;;;;;;5.94;100.00;98700.88;10364075;28;20181;-78
2021/04/30 06:06:36;;;;;;;7.50;3.90;;;;;;;5.97;100.00;98699.31;10380162;28;20229;-76
2021/04/30 06:11:55;;;;;;;8.00;3.10;;;;;;;5.73;100.00;98706.13;10364816;28;20212;-78
2021/04/30 06:17:15;;;;;;;12.77;5.73;;;;;;;6.19;100.00;98696.38;10363688;28;20574;-79
2021/04/30 06:22:34;;;;;;;4.77;3.30;;;;;;;6.47;100.00;98702.03;10364648;28;20181;-78
2021/04/30 06:27:53;;;;;;;4.20;3.47;;;;;;;6.70;100.00;98688.91;10364352;28;20589;-78
2021/04/30 06:33:12;;;;;;;7.03;4.67;;;;;;;7.08;100.00;98693.75;10377287;28;20212;-77
2021/04/30 06:38:30;;;;;;;7.07;4.60;;;;;;;7.30;100.00;98704.38;10377915;28;20204;-77
2021/04/30 06:43:49;;;;;;;2.27;1.93;;;;;;;7.53;100.00;98697.38;10377279;28;20177;-77
2021/04/30 06:49:08;;;;;;;9.40;5.63;;;;;;;7.40;100.00;98698.13;10362904;28;20304;-76
2021/04/30 06:54:28;;;;;;;4.77;4.30;;;;;;;8.30;99.91;98687.25;10378284;28;20612;-77
2021/04/30 06:59:47;;;;;;;9.27;4.37;;;;;;;8.82;89.53;98680.88;10376841;28;20185;-76
2021/04/30 07:05:06;;;;;;;7.80;4.43;;;;;;;9.50;87.06;98667.22;10376970;28;20173;-77
2021/04/30 07:10:26;;;;;;;33.50;5.90;;;;;;;9.38;86.24;98675.13;10377408;28;20569;-76
2021/04/30 07:15:45;;;;;;;9.23;4.67;;;;;;;9.10;86.67;98673.31;10376324;28;20212;-76
2021/04/30 07:21:05;;;;;;;6.77;5.00;;;;;;;10.22;85.06;98645.84;10377223;28;20176;-76
2021/04/30 07:26:24;;;;;;;10.70;6.50;;;;;;;10.69;67.58;98656.00;10377136;28;20631;-76
2021/04/30 07:31:43;;;;;;;8.23;4.87;;;;;;;10.70;61.72;98663.06;10375122;28;20208;-76
2021/04/30 07:37:02;;;;;;;13.30;6.70;;;;;;;11.39;61.96;98662.16;10361196;28;20176;-76
2021/04/30 07:42:21;;;;;;;10.37;5.40;;;;;;;11.68;59.37;98659.81;10361507;28;20173;-78
2021/04/30 07:47:40;;;;;;;10.33;5.83;;;;;;;12.36;57.14;98656.31;10374287;28;20220;-79
2021/04/30 07:52:59;;;;;;;5.53;5.03;;;;;;;12.79;59.59;98646.84;10360464;28;20279;-79
2021/04/30 07:58:19;;;;;;;8.60;5.67;;;;;;;13.27;55.75;98658.09;10375844;28;20627;-78
2021/04/30 08:03:39;;;;;;;9.33;5.70;;;;;;;13.22;54.85;98656.63;10375138;28;20202;-78
2021/04/30 08:08:58;;;;;;;11.33;6.30;;;;;;;13.78;54.45;98658.91;10375468;28;20330;-79
2021/04/30 08:14:17;;;;;;;11.13;6.07;;;;;;;13.50;52.55;98663.50;10374055;28;20220;-79
2021/04/30 08:19:36;;;;;;;9.30;5.90;;;;;;;12.88;56.19;98667.16;10360121;28;20172;-79
2021/04/30 08:24:55;;;;;;;9.37;7.00;;;;;;;12.51;56.83;98652.91;10360136;28;20184;-79
2021/04/30 08:30:15;;;;;;;14.87;6.00;;;;;;;13.42;55.48;98648.28;10358483;28;20200;-78
2021/04/30 08:35:34;;;;;;;12.73;5.87;;;;;;;14.68;50.39;98644.00;10374946;28;20173;-78
2021/04/30 08:40:53;;;;;;;5.90;4.10;;;;;;;14.12;51.47;98645.47;10374630;28;20188;-78
2021/04/30 08:46:12;;;;;;;11.53;6.13;;;;;;;15.35;49.01;98641.66;10357884;28;20295;-78
2021/04/30 08:51:33;;;;;;;9.23;5.40;;;;;;;15.27;46.36;98647.88;10358976;28;20208;-77
2021/04/30 08:57:03;;;;;;;10.23;6.77;;;;;;;15.27;47.13;98632.00;10373939;28;20188;-79
2021/04/30 09:02:32;;;;;;;9.80;5.30;;;;;;;16.15;45.88;98646.69;10372829;28;20176;-78
2021/04/30 09:07:53;;;;;;;7.43;5.57;;;;;;;16.20;45.91;98651.66;10373802;28;20222;-78
2021/04/30 09:13:14;;;;;;;7.03;3.67;;;;;;;14.82;47.63;98666.53;10358337;28;20232;-79
2021/04/30 09:18:33;;;;;;;9.63;5.23;;;;;;;13.37;53.05;98651.56;10357643;28;20259;-77
2021/04/30 09:23:53;;;;;;;9.67;5.53;;;;;;;13.34;53.44;98649.66;10358563;28;20636;-78
2021/04/30 09:29:13;;;;;;;12.53;5.73;;;;;;;14.39;51.58;98632.13;10372247;28;20286;-78
2021/04/30 09:34:35;;;;;;;5.20;4.70;;;;;;;14.80;48.62;98651.56;10373604;28;20184;-78
2021/04/30 09:40:03;;;;;;;8.27;5.10;;;;;;;14.04;49.88;98630.25;10358354;28;20189;-77
2021/04/30 09:45:24;;;;;;;7.93;5.57;;;;;;;14.01;51.00;98633.09;10371526;28;20220;-77
2021/04/30 09:50:44;;;;;;;7.20;4.43;;;;;;;14.19;53.19;98636.22;10357880;28;20204;-78
2021/04/30 09:56:06;;;;;;;10.83;7.30;;;;;;;14.87;49.38;98630.00;10357831;28;20177;-78
2021/04/30 10:01:25;;;;;;;6.47;4.17;;;;;;;15.49;48.31;98630.19;10361816;28;20173;-78
2021/04/30 10:06:54;;;;;;;4.53;4.13;;;;;;;15.97;45.62;98629.84;10380420;28;20632;-78
2021/04/30 10:12:21;;;;;;;10.53;5.00;;;;;;;14.88;48.26;98614.16;10379494;28;20212;-78
2021/04/30 10:17:41;;;;;;;8.30;4.60;;;;;;;15.72;46.27;98596.56;10363816;28;20632;-77
2021/04/30 10:23:06;;;;;;;4.97;4.07;;;;;;;13.94;49.59;98611.13;10364667;28;20178;-78
2021/04/30 10:28:29;;;;;;;7.10;4.57;;;;;;;14.81;49.48;98604.06;10379597;28;20189;-77
2021/04/30 10:33:54;;;;;;;5.53;3.97;;;;;;;15.17;49.10;98613.69;10379183;28;20184;-78
2021/04/30 10:39:32;;;;;;;5.77;3.60;;;;;;;15.63;45.73;98604.78;10378610;28;20181;-78
2021/04/30 10:45:02;;;;;;;3.37;3.10;;;;;;;15.41;48.70;98586.47;10362284;28;20674;-79
2021/04/30 10:50:21;;;;;;;5.93;4.63;;;;;;;15.24;46.50;98599.66;10363610;28;20208;-78
2021/04/30 10:55:41;;;;;;;6.87;4.30;;;;;;;15.07;48.56;98593.84;10363493;28;20217;-79
2021/04/30 11:01:23;;;;;;;6.23;4.20;;;;;;;14.88;48.57;98603.88;10377078;28;20181;-79
2021/04/30 11:06:53;;;;;;;4.93;3.87;;;;;;;14.91;49.10;98602.22;10362955;28;20208;-78
2021/04/30 11:12:26;;;;;;;5.80;4.03;;;;;;;14.86;48.57;98588.91;10361238;28;20209;-78
2021/04/30 11:17:58;;;;;;;7.97;4.63;;;;;;;14.73;48.77;98597.19;10376279;28;20635;-78
2021/04/30 11:23:23;;;;;;;7.87;4.10;;;;;;;14.59;49.77;98594.03;10362424;28;20177;-78
2021/04/30 11:28:42;;;;;;;8.93;5.40;;;;;;;14.73;49.63;98590.84;10361493;28;20603;-78
2021/04/30 11:34:15;;;;;;;6.93;4.77;;;;;;;14.28;49.98;98594.88;10376885;28;20184;-80
2021/04/30 11:39:35;;;;;;;7.23;4.80;;;;;;;13.30;53.41;98594.47;10376690;28;20192;-81
2021/04/30 11:44:55;;;;;;;5.60;4.13;;;;;;;13.45;52.81;98606.00;10374146;28;20586;-81
2021/04/30 11:50:21;;;;;;;5.40;4.60;;;;;;;13.70;51.45;98587.63;10361126;28;20201;-80
2021/04/30 11:55:41;;;;;;;7.60;4.43;;;;;;;13.26;52.92;98596.56;10360746;28;20185;-80
2021/04/30 12:01:00;;;;;;;6.63;5.77;;;;;;;13.45;52.46;98589.41;10374638;28;20180;-80
2021/04/30 12:06:25;;;;;;;10.50;4.90;;;;;;;13.48;52.75;98592.09;10375785;28;20210;-80
2021/04/30 12:11:44;;;;;;;7.97;4.37;;;;;;;13.38;52.85;98589.59;10375388;28;20287;-80
2021/04/30 12:17:03;;;;;;;5.90;4.70;;;;;;;13.92;53.04;98589.44;10373518;28;20188;-80
2021/04/30 12:22:22;;;;;;;7.87;4.43;;;;;;;13.55;52.65;98583.63;10359836;28;20581;-79
2021/04/30 12:27:40;;;;;;;8.27;5.13;;;;;;;13.38;55.28;98579.31;10374834;28;20216;-79
2021/04/30 12:33:00;;;;;;;5.83;4.07;;;;;;;13.07;55.15;98593.84;10358147;28;20208;-79
2021/04/30 12:38:20;;;;;;;6.20;5.20;;;;;;;12.85;55.59;98590.72;10374513;28;20181;-78
2021/04/30 12:43:40;;;;;;;8.50;6.37;;;;;;;12.94;55.45;98615.00;10359276;28;20176;-78
2021/04/30 12:49:16;;;;;;;4.90;4.03;;;;;;;12.86;55.87;98608.03;10358595;28;20682;-78
2021/04/30 12:54:35;;;;;;;4.20;3.70;;;;;;;13.02;56.43;98606.16;10374191;28;20177;-78
2021/04/30 13:00:00;;;;;;;6.53;4.57;;;;;;;12.90;56.04;98615.09;10373000;28;20185;-78
2021/04/30 13:05:23;;;;;;;5.13;3.63;;;;;;;12.66;56.04;98612.78;10373954;28;20181;-78
2021/04/30 13:10:43;;;;;;;5.37;4.90;;;;;;;12.54;57.09;98604.38;10373634;28;20622;-78
2021/04/30 13:16:04;;;;;;;8.10;3.80;;;;;;;12.70;56.22;98596.16;10357613;28;20547;-79
2021/04/30 13:21:30;;;;;;;10.20;5.77;;;;;;;12.61;56.41;98593.97;10373689;28;20626;-79
2021/04/30 13:27:04;;;;;;;9.23;5.20;;;;;;;12.85;56.25;98587.94;10373951;28;20177;-79
2021/04/30 13:32:25;;;;;;;12.87;6.93;;;;;;;12.78;55.39;98581.78;10371703;28;20208;-79
2021/04/30 13:37:52;;;;;;;3.30;3.00;;;;;;;12.83;55.14;98576.56;10381098;28;20176;-79
2021/04/30 13:43:11;;;;;;;6.27;4.90;;;;;;;12.70;56.19;98580.38;10381089;28;20172;-78
2021/04/30 13:48:29;;;;;;;7.10;3.97;;;;;;;12.60;56.96;98586.88;10364415;28;20217;-78
2021/04/30 13:53:49;;;;;;;8.63;4.93;;;;;;;12.65;57.67;98589.16;10380150;28;20208;-79
2021/04/30 13:59:07;;;;;;;8.70;4.43;;;;;;;12.91;55.79;98596.53;10379053;28;20184;-80
2021/04/30 14:04:26;;;;;;;7.83;4.40;;;;;;;13.01;56.34;98598.28;10365615;28;20173;-80
2021/04/30 14:09:45;;;;;;;5.00;2.67;;;;;;;12.04;61.29;98601.72;10365123;28;20216;-80
2021/04/30 14:15:06;;;;;;;6.57;2.50;;;;;;;10.95;68.92;98601.03;10363849;28;20260;-80
2021/04/30 14:20:25;;;;;;;5.50;2.93;;;;;;;10.53;73.64;98607.03;10379679;28;20565;-80
2021/04/30 14:25:44;;;;;;;3.90;2.50;;;;;;;10.30;75.98;98603.34;10364738;28;20185;-78
2021/04/30 14:31:03;;;;;;;9.90;3.47;;;;;;;10.36;78.45;98588.75;10377296;28;20204;-78
2021/04/30 14:36:23;;;;;;;2.10;1.90;;;;;;;10.47;83.05;98577.66;10379365;28;20224;-79
2021/04/30 14:41:42;;;;;;;4.20;3.03;;;;;;;10.17;84.85;98585.84;10378981;28;20624;-79
2021/04/30 14:47:02;;;;;;;5.40;3.63;;;;;;;9.40;91.17;98601.41;10376995;28;20311;-81
2021/04/30 14:52:21;;;;;;;6.80;3.10;;;;;;;9.62;89.86;98609.84;10363310;28;20667;-80
2021/04/30 14:57:40;;;;;;;4.67;4.20;;;;;;;9.49;91.70;98599.75;10378318;28;20255;-79
2021/04/30 15:02:59;;;;;;;3.00;2.70;;;;;;;9.52;93.88;98594.25;10376996;28;20216;-77
2021/04/30 15:08:19;;;;;;;3.43;3.07;;;;;;;9.66;94.47;98601.59;10377898;28;20643;-78
2021/04/30 15:13:40;;;;;;;3.93;1.50;;;;;;;9.61;92.53;98608.28;10377045;28;20247;-77
2021/04/30 15:18:59;;;;;;;14.10;5.53;;;;;;;9.54;93.39;98616.59;10377466;28;20176;-77
2021/04/30 15:24:18;;;;;;;5.40;2.93;;;;;;;9.33;96.07;98626.94;10377394;28;20184;-78
2021/04/30 15:29:37;;;;;;;7.20;5.30;;;;;;;9.34;99.66;98611.22;10375715;28;20216;-77
2021/04/30 15:34:56;;;;;;;4.60;3.10;;;;;;;9.43;96.01;98609.63;10362069;28;20240;-76
2021/04/30 15:40:17;;;;;;;4.67;3.40;;;;;;;9.52;93.50;98574.25;10376617;28;20632;-77
2021/04/30 15:45:36;;;;;;;8.23;2.90;;;;;;;9.70;93.01;98581.16;10375062;28;20248;-77
2021/04/30 15:50:55;;;;;;;3.40;3.20;;;;;;;9.85;90.95;98570.84;10376094;28;20577;-77
2021/04/30 15:56:14;;;;;;;7.37;3.80;;;;;;;10.13;87.12;98581.56;10375524;28;20181;-78
2021/04/30 16:01:33;;;;;;;6.53;3.30;;;;;;;10.19;86.82;98582.66;10359912;28;20201;-77
2021/04/30 16:06:52;;;;;;;6.33;3.77;;;;;;;10.19;86.67;98575.22;10375740;28;20177;-77
2021/04/30 16:12:11;;;;;;;6.03;2.87;;;;;;;10.27;85.44;98578.66;10375187;28;20221;-78
2021/04/30 16:17:30;;;;;;;8.83;3.33;;;;;;;10.22;84.68;98587.34;10374075;28;20180;-78
2021/04/30 16:22:49;;;;;;;4.37;3.97;;;;;;;10.12;84.96;98593.75;10374840;28;20172;-77
2021/04/30 16:28:08;;;;;;;2.90;2.20;;;;;;;10.23;84.16;98588.91;10374571;28;20176;-76
2021/04/30 16:33:27;;;;;;;4.00;3.23;;;;;;;10.32;82.34;98587.25;10373044;28;20200;-78
2021/04/30 16:38:46;;;;;;;6.30;3.60;;;;;;;10.12;82.98;98601.97;10360222;28;20177;-79
2021/04/30 16:44:06;;;;;;;6.00;3.47;;;;;;;10.03;82.78;98613.47;10358520;28;20196;-77
2021/04/30 16:49:25;;;;;;;2.20;2.00;;;;;;;9.99;80.63;98593.47;10373583;28;20225;-79
2021/04/30 16:54:44;;;;;;;10.07;3.77;;;;;;;9.99;80.58;98576.22;10374208;28;20181;-79
2021/04/30 17:00:05;;;;;;;4.10;2.73;;;;;;;10.07;81.52;98563.97;10372899;28;20181;-79
2021/04/30 17:05:24;;;;;;;8.03;2.80;;;;;;;10.22;80.76;98549.66;10372825;28;20177;-78
2021/04/30 17:10:43;;;;;;;5.23;3.80;;;;;;;10.34;81.57;98571.88;10358618;28;20220;-80
2021/04/30 17:16:04;;;;;;;10.53;3.90;;;;;;;9.87;86.03;98590.41;10372460;28;20609;-79
2021/04/30 17:21:23;;;;;;;3.83;3.27;;;;;;;9.66;87.85;98580.38;10358798;28;20169;-78
2021/04/30 17:26:42;;;;;;;9.00;6.50;;;;;;;9.75;86.26;98582.69;10373606;28;20181;-79
2021/04/30 17:32:00;;;;;;;6.40;4.67;;;;;;;9.80;85.92;98606.97;10371897;28;20204;-79
2021/04/30 17:37:19;;;;;;;6.63;3.23;;;;;;;9.67;86.03;98625.13;10373001;28;20255;-79
2021/04/30 17:42:40;;;;;;;4.20;3.20;;;;;;;9.60;83.96;98605.97;10372820;28;20196;-76
2021/04/30 17:48:02;;;;;;;4.40;2.80;;;;;;;9.59;84.00;98605.16;10356515;28;20220;-76
2021/04/30 17:53:22;;;;;;;3.17;2.73;;;;;;;9.60;83.20;98594.97;10357365;28;20204;-75
2021/04/30 17:58:41;;;;;;;1.93;1.40;;;;;;;9.69;84.26;98620.00;10357834;28;20173;-76
2021/04/30 18:04:01;;;;;;;3.33;3.13;;;;;;;9.61;85.41;98618.50;10372721;28;20180;-77
2021/04/30 18:09:21;;;;;;;5.63;2.77;;;;;;;9.58;86.41;98620.06;10372701;28;20184;-76
2021/04/30 18:14:40;;;;;;;2.57;2.37;;;;;;;9.52;85.80;98623.66;10371430;28;20200;-75
2021/04/30 18:19:59;;;;;;;5.57;4.50;;;;;;;9.53;85.62;98647.16;10359164;28;20188;-76
2021/04/30 18:25:18;;;;;;;8.77;4.40;;;;;;;9.51;84.51;98649.56;10379723;28;20184;-75
2021/04/30 18:30:38;;;;;;;5.13;4.03;;;;;;;9.68;84.28;98663.16;10362632;28;20687;-75
2021/04/30 18:35:57;;;;;;;11.13;4.23;;;;;;;9.50;85.26;98669.97;10379270;28;20204;-75
2021/04/30 18:41:18;;;;;;;13.57;8.13;;;;;;;9.59;86.14;98673.81;10363999;28;20263;-77
2021/04/30 18:46:37;;;;;;;5.13;3.30;;;;;;;9.56;86.10;98684.81;10377124;28;20224;-76
2021/04/30 18:51:56;;;;;;;6.63;4.20;;;;;;;9.50;86.13;98686.44;10377842;28;20299;-76
2021/04/30 18:57:15;;;;;;;4.20;3.80;;;;;;;9.44;86.96;98687.25;10378312;28;20185;-77
2021/04/30 19:02:34;;;;;;;6.73;4.27;;;;;;;9.44;86.76;98684.50;10377093;28;20687;-77
2021/04/30 19:07:54;;;;;;;5.20;4.43;;;;;;;9.48;85.79;98702.53;10378077;28;20212;-78
2021/04/30 19:13:13;;;;;;;5.27;2.73;;;;;;;9.50;86.00;98708.41;10377268;28;20243;-76
2021/04/30 19:18:33;;;;;;;4.77;2.77;;;;;;;9.46;86.60;98715.09;10376218;28;20234;-76
2021/04/30 19:23:52;;;;;;;6.47;4.60;;;;;;;9.33;88.10;98714.75;10377426;28;20176;-76
2021/04/30 19:29:11;;;;;;;3.87;2.63;;;;;;;9.25;89.89;98717.94;10360758;28;20188;-76
2021/04/30 19:34:30;;;;;;;4.23;3.63;;;;;;;9.25;90.00;98713.22;10360979;28;20177;-76
2021/04/30 19:39:49;;;;;;;4.97;3.70;;;;;;;9.28;90.05;98719.88;10376644;28;20180;-76
2021/04/30 19:45:09;;;;;;;4.67;3.73;;;;;;;9.12;91.79;98708.59;10374185;28;20225;-76
2021/04/30 19:50:28;;;;;;;3.27;2.97;;;;;;;9.08;92.82;98714.09;10361088;28;20220;-78
2021/04/30 19:55:48;;;;;;;4.30;3.90;;;;;;;9.10;92.73;98716.44;10375622;28;20243;-76
2021/04/30 20:01:07;;;;;;;6.53;4.63;;;;;;;9.11;93.88;98718.00;10359873;28;20184;-76
2021/04/30 20:06:26;;;;;;;6.73;3.50;;;;;;;9.07;94.07;98701.53;10374663;28;20180;-76
2021/04/30 20:11:45;;;;;;;2.93;2.73;;;;;;;9.03;93.42;98703.53;10360381;28;20232;-77
2021/04/30 20:17:03;;;;;;;4.40;3.37;;;;;;;9.05;94.78;98698.41;10359017;28;20173;-78
2021/04/30 20:22:23;;;;;;;7.03;3.73;;;;;;;9.04;94.56;98701.56;10374251;28;20558;-76
2021/04/30 20:27:45;;;;;;;8.53;5.57;;;;;;;8.98;94.61;98720.38;10374951;28;20200;-76
2021/04/30 20:33:06;;;;;;;5.30;4.80;;;;;;;9.07;94.42;98737.22;10373211;28;20208;-77
2021/04/30 20:38:26;;;;;;;3.23;2.27;;;;;;;8.97;95.46;98748.22;10374595;28;20181;-76
2021/04/30 20:43:45;;;;;;;4.30;3.43;;;;;;;8.92;95.86;98746.66;10358574;28;20185;-77
2021/04/30 20:49:04;;;;;;;4.80;3.47;;;;;;;9.00;94.82;98750.97;10373878;28;20589;-77
2021/04/30 20:54:23;;;;;;;4.03;3.13;;;;;;;8.93;93.86;98756.47;10374309;28;20184;-76
2021/04/30 20:59:42;;;;;;;4.00;3.30;;;;;;;8.94;94.36;98746.25;10371989;28;20189;-77
2021/04/30 21:05:02;;;;;;;4.83;3.40;;;;;;;8.87;95.23;98749.03;10373949;28;20173;-75
2021/04/30 21:10:29;;;;;;;7.10;4.17;;;;;;;8.90;95.50;98751.75;10373668;28;20295;-75
2021/04/30 21:15:49;;;;;;;6.70;3.53;;;;;;;8.73;96.50;98747.09;10372550;28;20180;-75
2021/04/30 21:21:08;;;;;;;4.13;2.70;;;;;;;8.74;95.89;98748.66;10373790;28;20189;-76
2021/04/30 21:26:27;;;;;;;6.97;4.37;;;;;;;8.75;95.73;98749.47;10358416;28;20632;-77
2021/04/30 21:31:46;;;;;;;4.20;3.00;;;;;;;8.75;95.39;98749.47;10357007;28;20666;-76
2021/04/30 21:37:05;;;;;;;4.93;4.03;;;;;;;8.76;98.60;98760.03;10373358;28;20184;-76
2021/04/30 21:42:28;;;;;;;5.53;4.47;;;;;;;8.75;100.00;98752.97;10358271;28;20177;-77
2021/04/30 21:47:47;;;;;;;6.00;4.10;;;;;;;8.77;100.00;98758.06;10370340;28;20691;-78
2021/04/30 21:53:07;;;;;;;12.17;4.60;;;;;;;8.76;99.77;98751.81;10372722;28;20683;-77
2021/04/30 21:58:29;;;;;;;4.80;4.30;;;;;;;8.79;98.90;98744.75;10380045;28;20180;-76
2021/04/30 22:03:48;;;;;;;9.67;4.37;;;;;;;8.87;95.34;98747.09;10365645;28;20189;-77
2021/04/30 22:09:16;;;;;;;6.97;2.90;;;;;;;8.85;94.58;98776.88;10379468;28;20361;-77
2021/04/30 22:14:37;;;;;;;6.73;3.50;;;;;;;8.76;97.07;98787.47;10364316;28;20208;-76
2021/04/30 22:19:56;;;;;;;12.70;5.60;;;;;;;8.71;94.63;98789.03;10380033;28;20189;-76
2021/04/30 22:25:15;;;;;;;5.43;4.33;;;;;;;8.72;95.06;98785.13;10379985;28;20192;-78
2021/04/30 22:30:34;;;;;;;4.17;3.70;;;;;;;8.78;93.66;98784.31;10363291;28;20208;-78
2021/04/30 22:35:53;;;;;;;12.63;5.60;;;;;;;8.74;94.06;98784.31;10379465;28;20627;-78
2021/04/30 22:41:12;;;;;;;11.43;6.17;;;;;;;8.71;93.92;98800.00;10379075;28;20181;-76
2021/04/30 22:46:31;;;;;;;5.33;4.37;;;;;;;8.66;94.04;98794.91;10362491;28;20216;-77
2021/04/30 22:51:50;;;;;;;3.60;3.30;;;;;;;8.59;94.95;98795.72;10378449;28;20204;-76
2021/04/30 22:57:10;;;;;;;6.37;4.63;;;;;;;8.62;94.02;98799.63;10378286;28;20185;-76
2021/04/30 23:02:28;;;;;;;6.63;3.10;;;;;;;8.73;92.23;98804.69;10376764;28;20580;-77
2021/04/30 23:07:47;;;;;;;4.87;3.67;;;;;;;8.72;93.46;98805.09;10362900;28;20263;-78
2021/04/30 23:13:06;;;;;;;8.37;5.47;;;;;;;8.78;92.60;98798.03;10362575;28;20204;-76
2021/04/30 23:18:25;;;;;;;6.83;3.00;;;;;;;8.64;93.08;98798.03;10361232;28;20624;-76
2021/04/30 23:23:45;;;;;;;6.60;5.00;;;;;;;8.53;95.52;98786.28;10377664;28;20169;-76
2021/04/30 23:29:04;;;;;;;10.30;4.13;;;;;;;8.61;95.71;98781.59;10376077;28;20184;-78
2021/04/30 23:34:23;;;;;;;8.13;5.57;;;;;;;8.64;95.74;98789.06;10362190;28;20185;-76
2021/04/30 23:39:42;;;;;;;4.90;3.73;;;;;;;8.55;97.43;98770.25;10376877;28;20177;-77
2021/04/30 23:45:01;;;;;;;6.90;5.23;;;;;;;8.64;97.35;98773.38;10360496;28;20236;-76
2021/04/30 23:50:20;;;;;;;7.10;4.67;;;;;;;8.60;98.30;98760.84;10376250;28;20208;-76
2021/04/30 23:55:39;;;;;;;7.60;4.93;;;;;;;8.66;96.23;98760.06;10361498;28;20570;-75
